sensor_id;sensor_type;location;lat;lon;timestamp;P1;durP1;ratioP1;P2;durP2;ratioP2
12681;SDS011;6405;59.208;18.216;2023-09-30T00:00:25;20.47;;;14.17;;
12681;SDS011;6405;59.208;18.216;2023-09-30T00:02:51;17.27;;;13.47;;
12681;SDS011;6405;59.208;18.216;2023-09-30T00:05:17;16.77;;;12.27;;
12681;SDS011;6405;59.208;18.216;2023-09-30T00:07:45;17.20;;;12.27;;
12681;SDS011;6405;59.208;18.216;2023-09-30T00:10:11;14.37;;;11.53;;
12681;SDS011;6405;59.208;18.216;2023-09-30T00:12:37;15.50;;;11.47;;
12681;SDS011;6405;59.208;18.216;2023-09-30T00:15:03;14.03;;;10.53;;
12681;SDS011;6405;59.208;18.216;2023-09-30T00:17:29;18.17;;;11.67;;
12681;SDS011;6405;59.208;18.216;2023-09-30T00:19:55;12.03;;;9.77;;
12681;SDS011;6405;59.208;18.216;2023-09-30T00:22:21;13.30;;;10.37;;
12681;SDS011;6405;59.208;18.216;2023-09-30T00:24:47;14.40;;;9.30;;
12681;SDS011;6405;59.208;18.216;2023-09-30T00:27:13;10.60;;;8.77;;
12681;SDS011;6405;59.208;18.216;2023-09-30T00:29:39;11.17;;;8.50;;
12681;SDS011;6405;59.208;18.216;2023-09-30T00:32:04;9.50;;;7.80;;
12681;SDS011;6405;59.208;18.216;2023-09-30T00:34:34;9.87;;;7.77;;
12681;SDS011;6405;59.208;18.216;2023-09-30T00:37:00;10.43;;;8.70;;
12681;SDS011;6405;59.208;18.216;2023-09-30T00:39:26;13.33;;;8.73;;
12681;SDS011;6405;59.208;18.216;2023-09-30T00:41:56;10.93;;;8.27;;
12681;SDS011;6405;59.208;18.216;2023-09-30T00:44:23;9.37;;;8.00;;
12681;SDS011;6405;59.208;18.216;2023-09-30T00:46:50;9.63;;;8.27;;
12681;SDS011;6405;59.208;18.216;2023-09-30T00:49:16;9.80;;;8.20;;
12681;SDS011;6405;59.208;18.216;2023-09-30T00:51:43;11.70;;;8.20;;
12681;SDS011;6405;59.208;18.216;2023-09-30T00:54:12;11.30;;;8.80;;
12681;SDS011;6405;59.208;18.216;2023-09-30T00:56:41;11.60;;;7.77;;
12681;SDS011;6405;59.208;18.216;2023-09-30T00:59:10;11.00;;;7.40;;
12681;SDS011;6405;59.208;18.216;2023-09-30T01:01:36;9.43;;;7.97;;
12681;SDS011;6405;59.208;18.216;2023-09-30T01:04:02;9.80;;;6.80;;
12681;SDS011;6405;59.208;18.216;2023-09-30T01:06:29;10.33;;;7.43;;
12681;SDS011;6405;59.208;18.216;2023-09-30T01:08:54;8.80;;;7.17;;
12681;SDS011;6405;59.208;18.216;2023-09-30T01:11:20;7.87;;;6.23;;
12681;SDS011;6405;59.208;18.216;2023-09-30T01:13:47;7.33;;;6.00;;
12681;SDS011;6405;59.208;18.216;2023-09-30T01:16:13;5.97;;;5.13;;
12681;SDS011;6405;59.208;18.216;2023-09-30T01:18:39;11.53;;;4.37;;
12681;SDS011;6405;59.208;18.216;2023-09-30T01:21:07;5.87;;;4.17;;
12681;SDS011;6405;59.208;18.216;2023-09-30T01:23:34;4.37;;;3.47;;
12681;SDS011;6405;59.208;18.216;2023-09-30T01:26:04;5.70;;;4.47;;
12681;SDS011;6405;59.208;18.216;2023-09-30T01:28:34;5.47;;;3.80;;
12681;SDS011;6405;59.208;18.216;2023-09-30T01:31:01;4.93;;;3.70;;
12681;SDS011;6405;59.208;18.216;2023-09-30T01:33:27;5.57;;;3.50;;
12681;SDS011;6405;59.208;18.216;2023-09-30T01:35:53;6.17;;;3.77;;
12681;SDS011;6405;59.208;18.216;2023-09-30T01:38:19;6.90;;;3.93;;
12681;SDS011;6405;59.208;18.216;2023-09-30T01:40:45;4.43;;;3.10;;
12681;SDS011;6405;59.208;18.216;2023-09-30T01:43:12;3.50;;;3.20;;
12681;SDS011;6405;59.208;18.216;2023-09-30T01:45:39;3.90;;;3.07;;
12681;SDS011;6405;59.208;18.216;2023-09-30T01:48:05;3.50;;;3.00;;
12681;SDS011;6405;59.208;18.216;2023-09-30T01:50:31;2.97;;;2.50;;
12681;SDS011;6405;59.208;18.216;2023-09-30T01:52:57;3.90;;;2.87;;
12681;SDS011;6405;59.208;18.216;2023-09-30T01:55:22;4.37;;;2.67;;
12681;SDS011;6405;59.208;18.216;2023-09-30T01:57:48;3.77;;;2.40;;
12681;SDS011;6405;59.208;18.216;2023-09-30T02:00:14;3.53;;;2.10;;
12681;SDS011;6405;59.208;18.216;2023-09-30T02:02:39;2.83;;;2.20;;
12681;SDS011;6405;59.208;18.216;2023-09-30T02:05:06;2.67;;;2.10;;
12681;SDS011;6405;59.208;18.216;2023-09-30T02:07:35;3.73;;;2.60;;
12681;SDS011;6405;59.208;18.216;2023-09-30T02:10:02;4.03;;;2.27;;
12681;SDS011;6405;59.208;18.216;2023-09-30T02:12:28;3.87;;;2.27;;
12681;SDS011;6405;59.208;18.216;2023-09-30T02:14:54;4.97;;;2.03;;
12681;SDS011;6405;59.208;18.216;2023-09-30T02:17:20;4.20;;;2.40;;
12681;SDS011;6405;59.208;18.216;2023-09-30T02:19:46;4.40;;;2.43;;
12681;SDS011;6405;59.208;18.216;2023-09-30T02:22:12;4.93;;;2.27;;
12681;SDS011;6405;59.208;18.216;2023-09-30T02:24:37;4.10;;;2.23;;
12681;SDS011;6405;59.208;18.216;2023-09-30T02:27:05;3.87;;;2.57;;
12681;SDS011;6405;59.208;18.216;2023-09-30T02:29:31;6.17;;;2.87;;
12681;SDS011;6405;59.208;18.216;2023-09-30T02:31:57;3.03;;;2.17;;
12681;SDS011;6405;59.208;18.216;2023-09-30T02:34:23;2.80;;;2.27;;
12681;SDS011;6405;59.208;18.216;2023-09-30T02:36:49;3.90;;;2.23;;
12681;SDS011;6405;59.208;18.216;2023-09-30T02:39:15;4.37;;;2.57;;
12681;SDS011;6405;59.208;18.216;2023-09-30T02:41:41;5.10;;;2.93;;
12681;SDS011;6405;59.208;18.216;2023-09-30T02:44:08;7.87;;;2.40;;
12681;SDS011;6405;59.208;18.216;2023-09-30T02:46:33;5.60;;;2.87;;
12681;SDS011;6405;59.208;18.216;2023-09-30T02:49:02;5.10;;;2.73;;
12681;SDS011;6405;59.208;18.216;2023-09-30T02:51:28;6.90;;;2.47;;
12681;SDS011;6405;59.208;18.216;2023-09-30T02:53:54;4.13;;;2.53;;
12681;SDS011;6405;59.208;18.216;2023-09-30T02:56:20;7.10;;;2.33;;
12681;SDS011;6405;59.208;18.216;2023-09-30T02:58:49;4.77;;;2.63;;
12681;SDS011;6405;59.208;18.216;2023-09-30T03:01:18;8.37;;;3.07;;
12681;SDS011;6405;59.208;18.216;2023-09-30T03:03:44;5.10;;;2.20;;
12681;SDS011;6405;59.208;18.216;2023-09-30T03:06:10;7.10;;;2.70;;
12681;SDS011;6405;59.208;18.216;2023-09-30T03:08:36;3.40;;;2.23;;
12681;SDS011;6405;59.208;18.216;2023-09-30T03:11:02;6.23;;;2.80;;
12681;SDS011;6405;59.208;18.216;2023-09-30T03:13:29;5.77;;;2.70;;
12681;SDS011;6405;59.208;18.216;2023-09-30T03:15:55;5.90;;;2.60;;
12681;SDS011;6405;59.208;18.216;2023-09-30T03:18:22;5.83;;;2.53;;
12681;SDS011;6405;59.208;18.216;2023-09-30T03:20:51;7.47;;;3.17;;
12681;SDS011;6405;59.208;18.216;2023-09-30T03:23:25;5.50;;;2.77;;
12681;SDS011;6405;59.208;18.216;2023-09-30T03:25:58;5.57;;;2.43;;
12681;SDS011;6405;59.208;18.216;2023-09-30T03:28:24;5.53;;;2.43;;
12681;SDS011;6405;59.208;18.216;2023-09-30T03:30:54;4.93;;;2.53;;
12681;SDS011;6405;59.208;18.216;2023-09-30T03:33:21;6.17;;;2.67;;
12681;SDS011;6405;59.208;18.216;2023-09-30T03:35:47;7.97;;;3.03;;
12681;SDS011;6405;59.208;18.216;2023-09-30T03:38:13;5.30;;;3.03;;
12681;SDS011;6405;59.208;18.216;2023-09-30T03:40:41;7.87;;;2.93;;
12681;SDS011;6405;59.208;18.216;2023-09-30T03:43:12;6.50;;;3.13;;
12681;SDS011;6405;59.208;18.216;2023-09-30T03:45:40;10.20;;;2.97;;
12681;SDS011;6405;59.208;18.216;2023-09-30T03:48:06;6.07;;;2.80;;
12681;SDS011;6405;59.208;18.216;2023-09-30T03:50:32;8.20;;;3.10;;
12681;SDS011;6405;59.208;18.216;2023-09-30T03:53:02;6.03;;;3.00;;
12681;SDS011;6405;59.208;18.216;2023-09-30T03:55:30;5.47;;;2.93;;
12681;SDS011;6405;59.208;18.216;2023-09-30T03:57:57;10.97;;;3.10;;
12681;SDS011;6405;59.208;18.216;2023-09-30T04:00:23;7.27;;;3.20;;
12681;SDS011;6405;59.208;18.216;2023-09-30T04:02:49;8.90;;;2.80;;
12681;SDS011;6405;59.208;18.216;2023-09-30T04:05:19;7.60;;;2.83;;
12681;SDS011;6405;59.208;18.216;2023-09-30T04:07:49;8.90;;;3.30;;
12681;SDS011;6405;59.208;18.216;2023-09-30T04:10:15;7.20;;;2.80;;
12681;SDS011;6405;59.208;18.216;2023-09-30T04:12:41;8.63;;;3.40;;
12681;SDS011;6405;59.208;18.216;2023-09-30T04:15:07;9.43;;;3.40;;
12681;SDS011;6405;59.208;18.216;2023-09-30T04:17:37;9.13;;;3.30;;
12681;SDS011;6405;59.208;18.216;2023-09-30T04:20:05;10.97;;;3.50;;
12681;SDS011;6405;59.208;18.216;2023-09-30T04:22:34;10.80;;;3.30;;
12681;SDS011;6405;59.208;18.216;2023-09-30T04:25:00;10.40;;;3.43;;
12681;SDS011;6405;59.208;18.216;2023-09-30T04:27:26;10.13;;;3.40;;
12681;SDS011;6405;59.208;18.216;2023-09-30T04:29:52;6.77;;;2.80;;
12681;SDS011;6405;59.208;18.216;2023-09-30T04:32:18;9.40;;;3.37;;
12681;SDS011;6405;59.208;18.216;2023-09-30T04:34:44;9.37;;;3.03;;
12681;SDS011;6405;59.208;18.216;2023-09-30T04:37:11;8.43;;;3.73;;
12681;SDS011;6405;59.208;18.216;2023-09-30T04:39:39;10.57;;;3.17;;
12681;SDS011;6405;59.208;18.216;2023-09-30T04:42:04;15.53;;;3.77;;
12681;SDS011;6405;59.208;18.216;2023-09-30T04:44:30;7.93;;;3.43;;
12681;SDS011;6405;59.208;18.216;2023-09-30T04:46:57;8.50;;;3.00;;
12681;SDS011;6405;59.208;18.216;2023-09-30T04:49:23;12.53;;;3.93;;
12681;SDS011;6405;59.208;18.216;2023-09-30T04:51:49;12.23;;;3.90;;
12681;SDS011;6405;59.208;18.216;2023-09-30T04:54:15;12.77;;;4.20;;
12681;SDS011;6405;59.208;18.216;2023-09-30T04:56:41;9.60;;;3.50;;
12681;SDS011;6405;59.208;18.216;2023-09-30T04:59:06;9.50;;;3.53;;
12681;SDS011;6405;59.208;18.216;2023-09-30T05:01:32;11.90;;;3.70;;
12681;SDS011;6405;59.208;18.216;2023-09-30T05:03:58;12.63;;;3.67;;
12681;SDS011;6405;59.208;18.216;2023-09-30T05:06:24;11.37;;;3.27;;
12681;SDS011;6405;59.208;18.216;2023-09-30T05:08:49;7.47;;;3.90;;
12681;SDS011;6405;59.208;18.216;2023-09-30T05:11:15;11.13;;;3.80;;
12681;SDS011;6405;59.208;18.216;2023-09-30T05:13:41;12.70;;;3.40;;
12681;SDS011;6405;59.208;18.216;2023-09-30T05:16:07;11.20;;;4.03;;
12681;SDS011;6405;59.208;18.216;2023-09-30T05:18:33;8.70;;;3.03;;
12681;SDS011;6405;59.208;18.216;2023-09-30T05:20:59;13.27;;;3.97;;
12681;SDS011;6405;59.208;18.216;2023-09-30T05:23:25;11.97;;;4.23;;
12681;SDS011;6405;59.208;18.216;2023-09-30T05:25:51;9.83;;;3.53;;
12681;SDS011;6405;59.208;18.216;2023-09-30T05:28:19;10.40;;;3.67;;
12681;SDS011;6405;59.208;18.216;2023-09-30T05:30:46;11.93;;;3.57;;
12681;SDS011;6405;59.208;18.216;2023-09-30T05:33:11;9.40;;;3.03;;
12681;SDS011;6405;59.208;18.216;2023-09-30T05:35:41;12.43;;;3.73;;
12681;SDS011;6405;59.208;18.216;2023-09-30T05:38:08;9.83;;;3.63;;
12681;SDS011;6405;59.208;18.216;2023-09-30T05:40:33;11.47;;;3.50;;
12681;SDS011;6405;59.208;18.216;2023-09-30T05:42:59;10.67;;;3.60;;
12681;SDS011;6405;59.208;18.216;2023-09-30T05:45:26;15.73;;;3.90;;
12681;SDS011;6405;59.208;18.216;2023-09-30T05:47:53;7.67;;;3.30;;
12681;SDS011;6405;59.208;18.216;2023-09-30T05:50:24;9.73;;;3.20;;
12681;SDS011;6405;59.208;18.216;2023-09-30T05:52:51;10.57;;;3.20;;
12681;SDS011;6405;59.208;18.216;2023-09-30T05:55:21;8.87;;;2.87;;
12681;SDS011;6405;59.208;18.216;2023-09-30T05:57:50;8.63;;;3.07;;
12681;SDS011;6405;59.208;18.216;2023-09-30T06:00:17;12.43;;;3.87;;
12681;SDS011;6405;59.208;18.216;2023-09-30T06:02:58;9.20;;;3.00;;
12681;SDS011;6405;59.208;18.216;2023-09-30T06:05:24;9.73;;;3.17;;
12681;SDS011;6405;59.208;18.216;2023-09-30T06:07:55;9.37;;;3.57;;
12681;SDS011;6405;59.208;18.216;2023-09-30T06:10:21;11.17;;;3.97;;
12681;SDS011;6405;59.208;18.216;2023-09-30T06:12:48;11.10;;;2.93;;
12681;SDS011;6405;59.208;18.216;2023-09-30T06:15:19;10.73;;;3.03;;
12681;SDS011;6405;59.208;18.216;2023-09-30T06:17:47;8.70;;;3.30;;
12681;SDS011;6405;59.208;18.216;2023-09-30T06:20:14;8.97;;;3.13;;
12681;SDS011;6405;59.208;18.216;2023-09-30T06:22:43;9.83;;;3.87;;
12681;SDS011;6405;59.208;18.216;2023-09-30T06:25:16;13.07;;;3.43;;
12681;SDS011;6405;59.208;18.216;2023-09-30T06:27:43;11.57;;;3.43;;
12681;SDS011;6405;59.208;18.216;2023-09-30T06:30:13;11.27;;;3.23;;
12681;SDS011;6405;59.208;18.216;2023-09-30T06:32:41;13.90;;;3.83;;
12681;SDS011;6405;59.208;18.216;2023-09-30T06:35:07;9.43;;;2.93;;
12681;SDS011;6405;59.208;18.216;2023-09-30T06:37:38;9.00;;;2.70;;
12681;SDS011;6405;59.208;18.216;2023-09-30T06:40:05;9.53;;;3.10;;
12681;SDS011;6405;59.208;18.216;2023-09-30T06:42:33;14.07;;;3.43;;
12681;SDS011;6405;59.208;18.216;2023-09-30T06:45:02;8.77;;;3.10;;
12681;SDS011;6405;59.208;18.216;2023-09-30T06:47:34;11.20;;;3.17;;
12681;SDS011;6405;59.208;18.216;2023-09-30T06:50:01;9.87;;;3.17;;
12681;SDS011;6405;59.208;18.216;2023-09-30T06:52:33;11.77;;;4.17;;
12681;SDS011;6405;59.208;18.216;2023-09-30T06:55:00;7.90;;;2.77;;
12681;SDS011;6405;59.208;18.216;2023-09-30T06:57:26;11.43;;;2.70;;
12681;SDS011;6405;59.208;18.216;2023-09-30T06:59:52;11.97;;;3.03;;
12681;SDS011;6405;59.208;18.216;2023-09-30T07:02:18;10.23;;;2.90;;
12681;SDS011;6405;59.208;18.216;2023-09-30T07:04:43;10.27;;;2.77;;
12681;SDS011;6405;59.208;18.216;2023-09-30T07:07:09;8.60;;;2.97;;
12681;SDS011;6405;59.208;18.216;2023-09-30T07:09:35;13.93;;;3.10;;
12681;SDS011;6405;59.208;18.216;2023-09-30T07:12:01;9.77;;;2.60;;
12681;SDS011;6405;59.208;18.216;2023-09-30T07:14:27;9.70;;;3.10;;
12681;SDS011;6405;59.208;18.216;2023-09-30T07:16:53;9.70;;;2.47;;
12681;SDS011;6405;59.208;18.216;2023-09-30T07:19:19;7.67;;;3.10;;
12681;SDS011;6405;59.208;18.216;2023-09-30T07:21:45;7.73;;;2.40;;
12681;SDS011;6405;59.208;18.216;2023-09-30T07:24:11;9.87;;;3.07;;
12681;SDS011;6405;59.208;18.216;2023-09-30T07:26:37;16.53;;;3.00;;
12681;SDS011;6405;59.208;18.216;2023-09-30T07:29:03;6.77;;;2.27;;
12681;SDS011;6405;59.208;18.216;2023-09-30T07:31:32;9.53;;;2.63;;
12681;SDS011;6405;59.208;18.216;2023-09-30T07:34:00;8.30;;;3.03;;
12681;SDS011;6405;59.208;18.216;2023-09-30T07:36:26;14.23;;;2.87;;
12681;SDS011;6405;59.208;18.216;2023-09-30T07:38:51;10.70;;;2.80;;
12681;SDS011;6405;59.208;18.216;2023-09-30T07:41:18;10.43;;;2.77;;
12681;SDS011;6405;59.208;18.216;2023-09-30T07:43:43;12.80;;;2.80;;
12681;SDS011;6405;59.208;18.216;2023-09-30T07:46:09;8.17;;;2.97;;
12681;SDS011;6405;59.208;18.216;2023-09-30T07:48:35;9.00;;;2.60;;
12681;SDS011;6405;59.208;18.216;2023-09-30T07:51:01;9.87;;;2.80;;
12681;SDS011;6405;59.208;18.216;2023-09-30T07:53:27;11.20;;;2.60;;
12681;SDS011;6405;59.208;18.216;2023-09-30T07:55:53;15.37;;;3.23;;
12681;SDS011;6405;59.208;18.216;2023-09-30T07:58:19;9.57;;;2.60;;
12681;SDS011;6405;59.208;18.216;2023-09-30T08:00:45;8.50;;;2.63;;
12681;SDS011;6405;59.208;18.216;2023-09-30T08:03:11;8.63;;;2.83;;
12681;SDS011;6405;59.208;18.216;2023-09-30T08:05:37;11.53;;;3.33;;
12681;SDS011;6405;59.208;18.216;2023-09-30T08:08:03;14.00;;;3.20;;
12681;SDS011;6405;59.208;18.216;2023-09-30T08:10:31;9.23;;;2.77;;
12681;SDS011;6405;59.208;18.216;2023-09-30T08:12:57;8.90;;;2.97;;
12681;SDS011;6405;59.208;18.216;2023-09-30T08:15:26;4.93;;;1.80;;
12681;SDS011;6405;59.208;18.216;2023-09-30T08:17:51;10.73;;;3.00;;
12681;SDS011;6405;59.208;18.216;2023-09-30T08:20:17;12.40;;;3.10;;
12681;SDS011;6405;59.208;18.216;2023-09-30T08:22:43;11.40;;;2.60;;
12681;SDS011;6405;59.208;18.216;2023-09-30T08:25:10;10.37;;;3.20;;
12681;SDS011;6405;59.208;18.216;2023-09-30T08:27:36;8.73;;;2.30;;
12681;SDS011;6405;59.208;18.216;2023-09-30T08:30:03;9.63;;;2.57;;
12681;SDS011;6405;59.208;18.216;2023-09-30T08:32:34;11.73;;;2.87;;
12681;SDS011;6405;59.208;18.216;2023-09-30T08:35:01;9.83;;;2.80;;
12681;SDS011;6405;59.208;18.216;2023-09-30T08:37:28;10.80;;;2.77;;
12681;SDS011;6405;59.208;18.216;2023-09-30T08:39:55;11.20;;;2.43;;
12681;SDS011;6405;59.208;18.216;2023-09-30T08:42:20;11.83;;;3.20;;
12681;SDS011;6405;59.208;18.216;2023-09-30T08:44:51;9.33;;;2.87;;
12681;SDS011;6405;59.208;18.216;2023-09-30T08:47:21;10.10;;;2.73;;
12681;SDS011;6405;59.208;18.216;2023-09-30T08:49:48;12.37;;;2.77;;
12681;SDS011;6405;59.208;18.216;2023-09-30T08:52:16;7.00;;;2.73;;
12681;SDS011;6405;59.208;18.216;2023-09-30T08:54:42;11.10;;;3.23;;
12681;SDS011;6405;59.208;18.216;2023-09-30T08:57:10;9.70;;;2.70;;
12681;SDS011;6405;59.208;18.216;2023-09-30T08:59:38;7.27;;;2.23;;
12681;SDS011;6405;59.208;18.216;2023-09-30T09:02:08;10.73;;;3.20;;
12681;SDS011;6405;59.208;18.216;2023-09-30T09:04:34;13.67;;;3.00;;
12681;SDS011;6405;59.208;18.216;2023-09-30T09:07:01;9.90;;;3.20;;
12681;SDS011;6405;59.208;18.216;2023-09-30T09:09:28;10.27;;;2.63;;
12681;SDS011;6405;59.208;18.216;2023-09-30T09:11:53;5.80;;;2.20;;
12681;SDS011;6405;59.208;18.216;2023-09-30T09:14:19;10.40;;;2.90;;
12681;SDS011;6405;59.208;18.216;2023-09-30T09:17:06;12.00;;;3.27;;
12681;SDS011;6405;59.208;18.216;2023-09-30T09:19:33;7.90;;;2.00;;
12681;SDS011;6405;59.208;18.216;2023-09-30T09:22:05;11.90;;;2.73;;
12681;SDS011;6405;59.208;18.216;2023-09-30T09:24:32;9.57;;;2.30;;
12681;SDS011;6405;59.208;18.216;2023-09-30T09:27:10;12.07;;;2.87;;
12681;SDS011;6405;59.208;18.216;2023-09-30T09:29:38;9.53;;;2.37;;
12681;SDS011;6405;59.208;18.216;2023-09-30T09:32:17;8.05;;;2.70;;
12681;SDS011;6405;59.208;18.216;2023-09-30T09:34:44;8.13;;;2.50;;
12681;SDS011;6405;59.208;18.216;2023-09-30T09:37:16;11.00;;;2.60;;
12681;SDS011;6405;59.208;18.216;2023-09-30T09:39:49;8.10;;;2.43;;
12681;SDS011;6405;59.208;18.216;2023-09-30T09:42:26;10.83;;;2.30;;
12681;SDS011;6405;59.208;18.216;2023-09-30T09:45:00;7.17;;;2.53;;
12681;SDS011;6405;59.208;18.216;2023-09-30T09:47:31;7.93;;;2.37;;
12681;SDS011;6405;59.208;18.216;2023-09-30T09:49:58;8.37;;;2.57;;
12681;SDS011;6405;59.208;18.216;2023-09-30T09:52:25;9.87;;;2.40;;
12681;SDS011;6405;59.208;18.216;2023-09-30T09:54:52;9.43;;;2.63;;
12681;SDS011;6405;59.208;18.216;2023-09-30T09:57:18;10.27;;;2.70;;
12681;SDS011;6405;59.208;18.216;2023-09-30T09:59:44;11.60;;;2.23;;
12681;SDS011;6405;59.208;18.216;2023-09-30T10:02:15;6.17;;;1.90;;
12681;SDS011;6405;59.208;18.216;2023-09-30T10:04:42;8.07;;;2.33;;
12681;SDS011;6405;59.208;18.216;2023-09-30T10:07:18;9.33;;;1.97;;
12681;SDS011;6405;59.208;18.216;2023-09-30T10:09:48;7.93;;;2.20;;
12681;SDS011;6405;59.208;18.216;2023-09-30T10:12:17;11.37;;;2.20;;
12681;SDS011;6405;59.208;18.216;2023-09-30T10:14:44;7.67;;;2.13;;
12681;SDS011;6405;59.208;18.216;2023-09-30T10:17:10;10.63;;;3.13;;
12681;SDS011;6405;59.208;18.216;2023-09-30T10:19:36;8.73;;;2.40;;
12681;SDS011;6405;59.208;18.216;2023-09-30T10:22:30;7.43;;;1.87;;
12681;SDS011;6405;59.208;18.216;2023-09-30T10:24:56;5.77;;;2.23;;
12681;SDS011;6405;59.208;18.216;2023-09-30T10:29:56;5.03;;;1.50;;
12681;SDS011;6405;59.208;18.216;2023-09-30T10:33:08;7.60;;;1.77;;
12681;SDS011;6405;59.208;18.216;2023-09-30T10:35:15;11.00;;;2.73;;
12681;SDS011;6405;59.208;18.216;2023-09-30T10:37:42;7.77;;;1.90;;
12681;SDS011;6405;59.208;18.216;2023-09-30T10:40:09;9.30;;;2.37;;
12681;SDS011;6405;59.208;18.216;2023-09-30T10:42:47;7.03;;;1.90;;
12681;SDS011;6405;59.208;18.216;2023-09-30T10:53:29;5.13;;;1.40;;
12681;SDS011;6405;59.208;18.216;2023-09-30T10:55:59;5.80;;;1.40;;
12681;SDS011;6405;59.208;18.216;2023-09-30T10:58:44;5.77;;;1.43;;
12681;SDS011;6405;59.208;18.216;2023-09-30T11:01:11;4.23;;;1.67;;
12681;SDS011;6405;59.208;18.216;2023-09-30T11:03:39;5.93;;;1.37;;
12681;SDS011;6405;59.208;18.216;2023-09-30T11:06:05;6.63;;;2.40;;
12681;SDS011;6405;59.208;18.216;2023-09-30T11:08:31;3.70;;;1.20;;
12681;SDS011;6405;59.208;18.216;2023-09-30T11:10:58;5.97;;;1.70;;
12681;SDS011;6405;59.208;18.216;2023-09-30T11:13:31;7.13;;;1.37;;
12681;SDS011;6405;59.208;18.216;2023-09-30T11:16:00;4.57;;;1.10;;
12681;SDS011;6405;59.208;18.216;2023-09-30T11:18:30;4.20;;;1.83;;
12681;SDS011;6405;59.208;18.216;2023-09-30T11:21:10;4.00;;;1.13;;
12681;SDS011;6405;59.208;18.216;2023-09-30T11:23:37;7.43;;;1.67;;
12681;SDS011;6405;59.208;18.216;2023-09-30T11:26:06;5.00;;;1.47;;
12681;SDS011;6405;59.208;18.216;2023-09-30T11:31:07;6.80;;;1.43;;
12681;SDS011;6405;59.208;18.216;2023-09-30T11:33:51;4.30;;;1.13;;
12681;SDS011;6405;59.208;18.216;2023-09-30T11:36:22;6.63;;;1.50;;
12681;SDS011;6405;59.208;18.216;2023-09-30T11:38:49;7.73;;;1.93;;
12681;SDS011;6405;59.208;18.216;2023-09-30T11:41:16;7.03;;;1.60;;
12681;SDS011;6405;59.208;18.216;2023-09-30T11:43:59;6.50;;;1.63;;
12681;SDS011;6405;59.208;18.216;2023-09-30T11:51:53;6.10;;;1.40;;
12681;SDS011;6405;59.208;18.216;2023-09-30T11:54:19;7.67;;;1.47;;
12681;SDS011;6405;59.208;18.216;2023-09-30T11:56:47;5.30;;;1.53;;
12681;SDS011;6405;59.208;18.216;2023-09-30T11:59:13;4.17;;;1.10;;
12681;SDS011;6405;59.208;18.216;2023-09-30T12:01:38;6.00;;;1.20;;
12681;SDS011;6405;59.208;18.216;2023-09-30T12:04:04;3.43;;;1.17;;
12681;SDS011;6405;59.208;18.216;2023-09-30T12:06:31;4.47;;;1.33;;
12681;SDS011;6405;59.208;18.216;2023-09-30T12:08:59;3.70;;;1.67;;
12681;SDS011;6405;59.208;18.216;2023-09-30T12:11:25;3.23;;;1.60;;
12681;SDS011;6405;59.208;18.216;2023-09-30T12:13:51;5.30;;;2.27;;
12681;SDS011;6405;59.208;18.216;2023-09-30T12:16:17;4.83;;;1.23;;
12681;SDS011;6405;59.208;18.216;2023-09-30T12:18:43;5.77;;;1.30;;
12681;SDS011;6405;59.208;18.216;2023-09-30T12:21:10;4.13;;;1.03;;
12681;SDS011;6405;59.208;18.216;2023-09-30T12:23:36;7.50;;;1.73;;
12681;SDS011;6405;59.208;18.216;2023-09-30T12:26:03;8.13;;;1.80;;
12681;SDS011;6405;59.208;18.216;2023-09-30T12:28:33;5.67;;;1.20;;
12681;SDS011;6405;59.208;18.216;2023-09-30T12:30:59;6.20;;;1.40;;
12681;SDS011;6405;59.208;18.216;2023-09-30T12:33:29;3.77;;;1.20;;
12681;SDS011;6405;59.208;18.216;2023-09-30T12:35:57;4.83;;;0.97;;
12681;SDS011;6405;59.208;18.216;2023-09-30T12:38:23;3.17;;;1.17;;
12681;SDS011;6405;59.208;18.216;2023-09-30T12:40:51;4.10;;;1.43;;
12681;SDS011;6405;59.208;18.216;2023-09-30T12:43:18;3.40;;;1.23;;
12681;SDS011;6405;59.208;18.216;2023-09-30T12:45:44;2.80;;;1.00;;
12681;SDS011;6405;59.208;18.216;2023-09-30T12:48:11;5.23;;;1.40;;
12681;SDS011;6405;59.208;18.216;2023-09-30T12:50:36;5.70;;;1.00;;
12681;SDS011;6405;59.208;18.216;2023-09-30T12:53:02;7.27;;;2.90;;
12681;SDS011;6405;59.208;18.216;2023-09-30T12:55:28;7.63;;;1.50;;
12681;SDS011;6405;59.208;18.216;2023-09-30T12:57:54;6.17;;;1.20;;
12681;SDS011;6405;59.208;18.216;2023-09-30T13:00:19;5.50;;;1.07;;
12681;SDS011;6405;59.208;18.216;2023-09-30T13:02:47;5.43;;;1.00;;
12681;SDS011;6405;59.208;18.216;2023-09-30T13:05:13;4.10;;;0.90;;
12681;SDS011;6405;59.208;18.216;2023-09-30T13:07:41;4.43;;;1.43;;
12681;SDS011;6405;59.208;18.216;2023-09-30T13:10:07;5.83;;;2.13;;
12681;SDS011;6405;59.208;18.216;2023-09-30T13:12:33;6.23;;;1.23;;
12681;SDS011;6405;59.208;18.216;2023-09-30T13:15:00;4.67;;;1.10;;
12681;SDS011;6405;59.208;18.216;2023-09-30T13:17:26;3.63;;;0.90;;
12681;SDS011;6405;59.208;18.216;2023-09-30T13:19:53;6.27;;;1.07;;
12681;SDS011;6405;59.208;18.216;2023-09-30T13:22:19;4.13;;;0.90;;
12681;SDS011;6405;59.208;18.216;2023-09-30T13:24:46;5.40;;;1.13;;
12681;SDS011;6405;59.208;18.216;2023-09-30T13:27:12;3.20;;;1.10;;
12681;SDS011;6405;59.208;18.216;2023-09-30T13:29:40;3.37;;;0.87;;
12681;SDS011;6405;59.208;18.216;2023-09-30T13:32:06;1.70;;;0.73;;
12681;SDS011;6405;59.208;18.216;2023-09-30T13:34:34;1.73;;;0.70;;
12681;SDS011;6405;59.208;18.216;2023-09-30T13:37:00;3.50;;;0.87;;
12681;SDS011;6405;59.208;18.216;2023-09-30T13:39:26;1.77;;;0.80;;
12681;SDS011;6405;59.208;18.216;2023-09-30T13:41:52;4.50;;;1.30;;
12681;SDS011;6405;59.208;18.216;2023-09-30T13:44:18;5.47;;;0.87;;
12681;SDS011;6405;59.208;18.216;2023-09-30T13:46:44;3.03;;;0.83;;
12681;SDS011;6405;59.208;18.216;2023-09-30T13:49:10;2.57;;;0.70;;
12681;SDS011;6405;59.208;18.216;2023-09-30T13:51:36;1.73;;;0.80;;
12681;SDS011;6405;59.208;18.216;2023-09-30T13:54:04;1.40;;;0.60;;
12681;SDS011;6405;59.208;18.216;2023-09-30T13:56:32;1.83;;;0.80;;
12681;SDS011;6405;59.208;18.216;2023-09-30T13:58:58;4.60;;;1.00;;
12681;SDS011;6405;59.208;18.216;2023-09-30T14:01:25;3.13;;;0.90;;
12681;SDS011;6405;59.208;18.216;2023-09-30T14:03:51;2.47;;;0.80;;
12681;SDS011;6405;59.208;18.216;2023-09-30T14:06:20;3.23;;;0.83;;
12681;SDS011;6405;59.208;18.216;2023-09-30T14:08:46;4.73;;;1.00;;
12681;SDS011;6405;59.208;18.216;2023-09-30T14:11:12;2.40;;;0.77;;
12681;SDS011;6405;59.208;18.216;2023-09-30T14:13:37;1.30;;;0.60;;
12681;SDS011;6405;59.208;18.216;2023-09-30T14:16:04;7.47;;;1.00;;
12681;SDS011;6405;59.208;18.216;2023-09-30T14:18:31;3.07;;;0.90;;
12681;SDS011;6405;59.208;18.216;2023-09-30T14:20:58;2.20;;;1.10;;
12681;SDS011;6405;59.208;18.216;2023-09-30T14:23:24;4.43;;;1.30;;
12681;SDS011;6405;59.208;18.216;2023-09-30T14:25:53;4.90;;;0.80;;
12681;SDS011;6405;59.208;18.216;2023-09-30T14:28:19;4.67;;;0.83;;
12681;SDS011;6405;59.208;18.216;2023-09-30T14:30:45;3.47;;;0.97;;
12681;SDS011;6405;59.208;18.216;2023-09-30T14:33:10;2.37;;;1.17;;
12681;SDS011;6405;59.208;18.216;2023-09-30T14:35:36;2.80;;;0.77;;
12681;SDS011;6405;59.208;18.216;2023-09-30T14:38:02;4.47;;;1.17;;
12681;SDS011;6405;59.208;18.216;2023-09-30T14:40:29;4.77;;;0.83;;
12681;SDS011;6405;59.208;18.216;2023-09-30T14:42:55;4.07;;;1.00;;
12681;SDS011;6405;59.208;18.216;2023-09-30T14:45:21;3.23;;;1.00;;
12681;SDS011;6405;59.208;18.216;2023-09-30T14:47:47;6.27;;;1.30;;
12681;SDS011;6405;59.208;18.216;2023-09-30T14:50:13;2.53;;;0.90;;
12681;SDS011;6405;59.208;18.216;2023-09-30T14:52:38;3.23;;;1.00;;
12681;SDS011;6405;59.208;18.216;2023-09-30T14:55:05;3.53;;;0.90;;
12681;SDS011;6405;59.208;18.216;2023-09-30T14:57:31;3.13;;;0.57;;
12681;SDS011;6405;59.208;18.216;2023-09-30T14:59:59;3.37;;;0.80;;
12681;SDS011;6405;59.208;18.216;2023-09-30T15:02:25;2.30;;;0.90;;